Time;durP1;ratioP1;P1;durP2;ratioP2;P2;SDS_P1;SDS_P2;PMS_P1;PMS_P2;Temp;Humidity;BMP_temperature;BMP_pressure;BME280_temperature;BME280_humidity;BME280_pressure;Samples;Min_cycle;Max_cycle;Signal;HPM_P1;HPM_P2
2021/12/12 00:00:08;;;;;;;;;20.50;12.50;;;;;9.07;72.93;101917.16;4962138;28;45449;-53
2021/12/12 00:02:49;;;;;;;;;11.25;10.00;;;;;8.97;72.64;101888.84;4962195;28;46527;-51
2021/12/12 00:05:17;;;;;;;;;18.00;14.75;;;;;8.99;73.46;101903.94;4961652;28;45539;-52
2021/12/12 00:07:43;;;;;;;;;13.75;13.25;;;;;8.97;74.14;101900.41;4962005;28;45371;-52
2021/12/12 00:10:18;;;;;;;;;14.50;11.75;;;;;9.00;73.20;101910.19;4962059;28;46110;-54
2021/12/12 00:12:49;;;;;;;;;21.50;13.75;;;;;8.99;73.69;101903.94;4961905;28;45384;-52
2021/12/12 00:15:16;;;;;;;;;14.50;9.00;;;;;8.97;73.97;101908.44;4962216;28;45428;-55
2021/12/12 00:17:42;;;;;;;;;13.00;12.25;;;;;8.95;73.77;101896.88;4962100;28;45322;-53
2021/12/12 00:20:10;;;;;;;;;14.50;11.75;;;;;8.99;73.98;101895.03;4961881;28;45489;-52
2021/12/12 00:22:37;;;;;;;;;22.25;14.75;;;;;9.03;74.20;101896.72;4961526;28;46459;-50
2021/12/12 00:25:03;;;;;;;;;18.50;14.00;;;;;9.05;74.04;101889.56;4961871;28;45321;-51
2021/12/12 00:27:29;;;;;;;;;17.25;11.50;;;;;9.03;74.74;101886.91;4962037;28;45258;-51
2021/12/12 00:30:02;;;;;;;;;12.75;12.50;;;;;9.04;75.05;101890.47;4961699;28;45185;-53
2021/12/12 05:30:47;;;;;;;;;13.25;10.75;;;;;9.65;79.22;101994.41;5690004;23;46482;-52
2021/12/12 05:33:16;;;;;;;;;11.25;11.25;;;;;9.69;78.90;102008.59;4960880;28;45245;-51
2021/12/12 05:35:44;;;;;;;;;16.50;13.00;;;;;9.70;79.16;102007.66;4960020;28;47163;-51
2021/12/12 05:38:11;;;;;;;;;9.75;9.75;;;;;9.72;78.44;102009.41;4960746;28;45311;-50
2021/12/12 05:40:40;;;;;;;;;12.00;10.25;;;;;9.72;78.67;102003.16;4960775;28;45511;-50
2021/12/12 05:43:07;;;;;;;;;12.25;9.00;;;;;9.83;78.37;102011.84;4960559;28;45420;-51
2021/12/12 05:45:34;;;;;;;;;12.75;9.00;;;;;9.89;78.35;102011.69;4960327;28;46046;-53
2021/12/12 05:48:02;;;;;;;;;11.25;9.00;;;;;9.95;78.06;102016.94;4960220;28;45415;-54
2021/12/12 05:50:29;;;;;;;;;14.75;11.00;;;;;9.90;78.15;102005.44;4960199;28;45323;-55
2021/12/12 05:52:55;;;;;;;;;14.75;9.25;;;;;9.98;77.92;102021.31;4960657;28;45658;-55
2021/12/12 05:55:24;;;;;;;;;12.50;8.00;;;;;10.03;77.84;102022.13;4960517;28;45469;-51
2021/12/12 05:57:54;;;;;;;;;9.00;9.00;;;;;10.02;78.39;102023.03;4960222;28;45193;-52
2021/12/12 06:00:24;;;;;;;;;11.00;10.00;;;;;9.96;78.67;102021.34;4960422;28;45459;-55
2021/12/12 06:02:50;;;;;;;;;9.25;8.75;;;;;9.82;79.22;102012.75;4958496;28;45359;-55
2021/12/12 06:05:16;;;;;;;;;9.50;8.75;;;;;9.85;79.24;102032.34;4960055;28;45260;-53
2021/12/12 06:07:41;;;;;;;;;8.25;7.00;;;;;9.88;79.18;102029.56;4960115;28;45332;-55
2021/12/12 06:10:11;;;;;;;;;10.25;8.75;;;;;9.95;78.67;102033.00;4960583;28;45165;-54
2021/12/12 06:12:37;;;;;;;;;10.75;9.00;;;;;9.91;78.97;102023.25;4960111;28;45573;-52
2021/12/12 06:15:08;;;;;;;;;8.50;8.50;;;;;9.90;78.54;102037.56;4960089;28;46220;-52
2021/12/12 06:17:35;;;;;;;;;11.00;9.75;;;;;9.85;78.60;102043.06;4960138;28;45406;-53
2021/12/12 06:20:03;;;;;;;;;4.00;4.00;;;;;9.81;79.26;102052.06;4960108;28;45397;-52
2021/12/12 06:22:28;;;;;;;;;6.25;6.00;;;;;9.85;79.10;102052.88;4959872;28;45742;-52
2021/12/12 06:24:54;;;;;;;;;13.25;10.00;;;;;9.85;79.18;102050.19;4960316;28;45385;-52
2021/12/12 06:27:22;;;;;;;;;7.75;7.75;;;;;9.81;79.24;102052.06;4960013;28;45328;-50
2021/12/12 06:29:52;;;;;;;;;1.75;0.75;;;;;9.73;80.08;102051.34;4961246;28;45250;-52
2021/12/12 06:32:18;;;;;;;;;11.25;9.00;;;;;9.74;79.82;102054.91;4963017;28;47613;-53
2021/12/12 06:34:46;;;;;;;;;12.50;10.50;;;;;9.71;80.17;102060.31;4963520;28;46418;-52
2021/12/12 06:37:11;;;;;;;;;15.25;9.25;;;;;9.57;81.12;102070.44;4963170;28;45177;-53
2021/12/12 06:39:37;;;;;;;;;8.25;8.25;;;;;9.55;81.27;102062.44;4963696;28;45233;-52
2021/12/12 06:42:04;;;;;;;;;12.75;9.00;;;;;9.59;80.94;102050.75;4963508;28;45289;-51
2021/12/12 06:44:31;;;;;;;;;14.75;10.75;;;;;9.59;80.56;102061.47;4963180;28;46392;-50
2021/12/12 06:46:59;;;;;;;;;11.00;7.75;;;;;9.59;81.22;102068.63;4963318;28;46414;-53
2021/12/12 06:49:25;;;;;;;;;11.75;7.50;;;;;9.54;81.06;102073.16;4963459;28;45265;-52
2021/12/12 06:51:54;;;;;;;;;8.00;8.00;;;;;9.48;81.90;102082.22;4962846;28;45186;-53
2021/12/12 06:54:24;;;;;;;;;7.50;4.25;;;;;9.45;81.58;102069.75;4963148;28;46594;-54
2021/12/12 06:56:53;;;;;;;;;9.25;6.25;;;;;9.52;81.29;102083.06;4963243;28;45329;-50
2021/12/12 06:59:21;;;;;;;;;12.00;11.75;;;;;9.52;81.60;102080.38;4963249;28;45332;-50
2021/12/12 07:01:48;;;;;;;;;11.00;9.25;;;;;9.46;81.50;102082.25;4962831;28;45370;-51
2021/12/12 07:04:15;;;;;;;;;12.25;10.00;;;;;9.51;81.55;102089.31;4962946;28;45323;-55
2021/12/12 07:06:41;;;;;;;;;10.00;9.00;;;;;9.47;81.66;102089.34;4962768;28;45229;-52
2021/12/12 07:09:09;;;;;;;;;10.00;8.00;;;;;9.51;81.58;102100.91;4963199;28;45395;-52
2021/12/12 07:11:37;;;;;;;;;7.75;7.25;;;;;9.60;81.29;102094.47;4962799;28;45406;-54
2021/12/12 07:14:04;;;;;;;;;9.25;8.00;;;;;9.65;81.17;102089.91;4962928;28;46351;-51
2021/12/12 07:16:31;;;;;;;;;7.75;7.75;;;;;9.76;80.82;102098.59;4962933;28;45260;-50
2021/12/12 07:18:57;;;;;;;;;7.25;7.00;;;;;9.80;80.87;102103.84;4962700;28;45309;-52
2021/12/12 07:21:23;;;;;;;;;9.00;7.00;;;;;9.84;80.43;102102.00;4962436;28;45417;-56
2021/12/12 07:23:52;;;;;;;;;4.75;4.50;;;;;9.89;80.47;102100.09;4962950;28;47430;-55
2021/12/12 07:26:22;;;;;;;;;10.25;6.25;;;;;9.88;80.27;102095.66;4962606;28;45264;-54
2021/12/12 07:28:50;;;;;;;;;3.25;3.25;;;;;9.84;80.38;102091.28;4962324;28;45240;-54
2021/12/12 07:31:21;;;;;;;;;11.50;10.00;;;;;9.88;80.56;102101.00;4962201;28;45332;-50
2021/12/12 07:33:51;;;;;;;;;8.25;5.00;;;;;9.85;80.53;102103.78;4962126;28;46262;-52
2021/12/12 07:36:19;;;;;;;;;9.25;9.25;;;;;9.88;80.47;102120.63;4962419;28;45391;-52
2021/12/12 07:38:51;;;;;;;;;7.25;7.00;;;;;9.86;80.70;102118.94;4962956;28;45195;-55
2021/12/12 07:41:19;;;;;;;;;11.25;6.50;;;;;9.90;80.50;102117.94;4961804;28;45286;-53
2021/12/12 07:43:45;;;;;;;;;9.25;8.00;;;;;9.97;80.23;102107.97;4962581;28;46278;-53
2021/12/12 07:46:10;;;;;;;;;6.00;3.25;;;;;9.94;80.42;102113.41;4962577;28;45283;-53
2021/12/12 07:48:39;;;;;;;;;10.00;8.00;;;;;9.93;80.27;102112.53;4962462;28;45246;-50
2021/12/12 07:51:05;;;;;;;;;10.00;5.00;;;;;9.85;80.70;102115.38;4962132;28;45958;-53
2021/12/12 07:53:32;;;;;;;;;7.50;7.50;;;;;9.82;80.92;102111.84;4962083;28;46415;-53
2021/12/12 07:55:57;;;;;;;;;14.50;9.00;;;;;9.84;80.78;102124.31;4962387;28;45408;-54
2021/12/12 07:58:24;;;;;;;;;6.00;6.00;;;;;9.84;80.73;102116.28;4962273;28;45429;-52
2021/12/12 08:00:52;;;;;;;;;8.75;7.75;;;;;9.90;80.98;102119.72;4961951;28;45382;-52
2021/12/12 08:03:22;;;;;;;;;7.00;5.25;;;;;9.94;80.51;102132.16;4961849;28;46362;-53
2021/12/12 08:05:49;;;;;;;;;5.25;5.00;;;;;10.00;80.59;102132.03;4961900;28;45690;-52
2021/12/12 08:08:15;;;;;;;;;16.25;10.00;;;;;9.98;80.51;102120.44;4962165;28;45265;-49
2021/12/12 08:10:44;;;;;;;;;7.00;6.75;;;;;10.02;80.16;102130.19;4962032;28;45533;-54
2021/12/12 08:13:12;;;;;;;;;9.00;7.00;;;;;10.04;80.24;102126.53;4962091;28;45305;-52
2021/12/12 08:15:39;;;;;;;;;12.00;6.00;;;;;10.03;80.28;102140.00;4961760;28;45391;-50
2021/12/12 08:18:07;;;;;;;;;7.25;7.25;;;;;9.97;81.04;102132.97;4962069;28;45341;-53
2021/12/12 08:20:34;;;;;;;;;6.50;6.00;;;;;9.90;80.71;102122.41;4961545;28;45511;-55
2021/12/12 08:23:00;;;;;;;;;9.50;8.00;;;;;9.97;81.23;102132.97;4961655;28;46099;-53
2021/12/12 08:25:27;;;;;;;;;6.50;4.50;;;;;10.04;80.94;102144.41;4961788;28;45392;-50
2021/12/12 08:27:57;;;;;;;;;8.50;8.50;;;;;10.09;80.51;102139.84;4961923;28;45410;-51
2021/12/12 08:30:24;;;;;;;;;9.75;7.00;;;;;10.15;80.28;102137.03;4961216;28;45383;-52
2021/12/12 08:32:51;;;;;;;;;7.75;7.75;;;;;10.18;80.21;102140.59;4961804;28;46296;-52
2021/12/12 08:35:20;;;;;;;;;12.75;7.50;;;;;10.21;79.92;102132.44;4961508;28;45373;-53
2021/12/12 08:37:46;;;;;;;;;8.00;8.00;;;;;10.24;79.83;102144.91;4961907;28;45229;-50
2021/12/12 08:40:19;;;;;;;;;9.50;8.00;;;;;10.27;79.71;102157.38;4961319;28;45261;-55
2021/12/12 08:42:50;;;;;;;;;9.25;7.50;;;;;10.23;79.95;102149.38;4961518;28;46335;-55
2021/12/12 08:45:19;;;;;;;;;9.50;8.00;;;;;10.22;80.38;102155.66;4961363;28;45264;-54
2021/12/12 08:47:46;;;;;;;;;13.50;8.00;;;;;10.29;79.67;102158.22;4961613;28;45331;-54
2021/12/12 08:50:14;;;;;;;;;6.50;6.50;;;;;10.21;80.35;102153.91;4960665;28;45449;-54
2021/12/12 08:52:44;;;;;;;;;10.75;9.50;;;;;10.22;80.08;102152.09;4960685;28;46603;-54
2021/12/12 08:55:18;;;;;;;;;5.00;5.00;;;;;10.25;80.09;102146.69;4960930;28;45394;-54
2021/12/12 08:57:57;;;;;;;;;7.50;7.50;;;;;10.35;80.18;102158.97;4961031;28;45279;-53
2021/12/12 09:00:24;;;;;;;;;9.25;4.75;;;;;10.41;79.67;102155.25;4960885;28;45463;-51
2021/12/12 09:02:51;;;;;;;;;6.50;5.25;;;;;10.44;79.43;102153.41;4960804;28;45516;-52
2021/12/12 09:05:23;;;;;;;;;4.50;4.00;;;;;10.48;79.21;102164.91;4960784;28;45430;-53
2021/12/12 09:07:54;;;;;;;;;8.50;7.50;;;;;10.48;79.14;102171.16;4961178;28;45521;-52
2021/12/12 09:10:27;;;;;;;;;10.00;8.00;;;;;10.46;79.32;102174.81;4961041;28;45362;-52
2021/12/12 09:13:02;;;;;;;;;4.25;4.25;;;;;10.36;79.44;102166.09;4960826;28;47137;-52
2021/12/12 09:15:52;;;;;;;;;6.25;6.25;;;;;10.42;79.40;102174.00;4960436;28;45363;-51
2021/12/12 09:18:28;;;;;;;;;4.75;4.75;;;;;10.42;79.21;102160.59;4960764;28;45311;-53
2021/12/12 09:21:02;;;;;;;;;6.00;4.00;;;;;10.58;79.34;102180.78;4960451;28;45163;-55
2021/12/12 09:23:34;;;;;;;;;5.00;5.00;;;;;10.53;79.22;102171.06;4960889;28;46385;-52
2021/12/12 09:26:04;;;;;;;;;5.25;5.25;;;;;10.64;79.23;102177.06;4960740;28;45408;-51
2021/12/12 09:28:41;;;;;;;;;6.75;5.00;;;;;10.68;78.84;102181.44;4961000;28;45250;-52
2021/12/12 09:31:24;;;;;;;;;8.75;6.25;;;;;10.63;79.28;102171.75;4960409;28;45243;-53
2021/12/12 09:33:57;;;;;;;;;6.25;6.00;;;;;10.71;79.57;102176.03;4960549;28;45170;-52
2021/12/12 09:36:34;;;;;;;;;8.00;5.50;;;;;10.73;79.54;102181.31;4960413;28;45419;-53
2021/12/12 09:39:32;;;;;;;;;12.50;8.50;;;;;10.71;80.12;102189.44;4960869;28;45427;-53
2021/12/12 09:42:29;;;;;;;;;9.00;5.25;;;;;10.71;79.72;102181.38;4960045;28;45592;-51
2021/12/12 09:45:03;;;;;;;;;5.25;5.25;;;;;10.73;79.83;102184.88;4960180;28;45481;-54
2021/12/12 09:51:17;;;;;;;;;6.50;6.00;;;;;10.75;79.54;102169.66;4960411;28;45283;-55
2021/12/12 09:53:51;;;;;;;;;6.00;5.00;;;;;10.83;79.70;102167.66;4960754;28;45309;-50
2021/12/12 09:56:39;;;;;;;;;4.00;3.00;;;;;10.91;79.27;102178.19;4960253;28;45359;-54
2021/12/12 09:59:16;;;;;;;;;5.50;4.00;;;;;10.95;79.18;102179.91;4960390;28;45332;-53
2021/12/12 10:02:05;;;;;;;;;7.75;7.75;;;;;10.99;78.56;102177.09;4960355;28;45355;-53
2021/12/12 10:04:46;;;;;;;;;6.00;6.00;;;;;11.07;78.94;102181.38;4959195;28;45220;-52
2021/12/12 10:07:27;;;;;;;;;5.00;5.00;;;;;11.07;78.59;102184.94;4960161;28;45422;-59
2021/12/12 10:09:57;;;;;;;;;7.00;7.00;;;;;11.10;78.54;102184.88;4960309;28;45241;-59
2021/12/12 10:12:28;;;;;;;;;8.00;5.00;;;;;11.19;78.13;102186.47;4960234;28;45268;-59
2021/12/12 10:15:07;;;;;;;;;5.75;5.00;;;;;11.18;78.25;102187.38;4960376;28;45263;-60
2021/12/12 10:18:18;;;;;;;;;6.25;6.25;;;;;11.17;78.77;102181.13;4960062;28;47140;-58
2021/12/12 10:21:01;;;;;;;;;4.50;4.50;;;;;11.16;78.49;102175.78;4959879;28;45347;-58
2021/12/12 10:24:18;;;;;;;;;8.00;6.00;;;;;11.15;78.34;102164.16;4960274;28;45437;-58
2021/12/12 10:26:48;;;;;;;;;6.00;6.00;;;;;11.28;78.42;102188.91;4927214;28;45575;-58
2021/12/12 10:29:21;;;;;;;;;10.00;8.25;;;;;11.08;78.67;102167.03;4959785;28;46234;-55
2021/12/12 10:31:57;;;;;;;;;7.25;5.00;;;;;11.31;78.21;102180.78;4959585;28;45366;-58
2021/12/12 10:34:32;;;;;;;;;9.25;7.50;;;;;11.49;77.97;102190.13;4960239;28;45456;-55
2021/12/12 10:37:14;;;;;;;;;9.25;4.00;;;;;11.55;77.60;102185.50;4959633;28;45291;-58
2021/12/12 10:39:44;;;;;;;;;8.25;6.75;;;;;11.70;77.17;102193.13;4959778;28;45300;-57
2021/12/12 10:42:14;;;;;;;;;9.00;6.50;;;;;11.65;76.77;102175.41;4959702;28;45497;-58
2021/12/12 10:44:55;;;;;;;;;6.50;5.75;;;;;11.65;76.95;102187.00;4959988;28;45221;-58
2021/12/12 10:47:43;;;;;;;;;11.50;6.00;;;;;11.73;76.76;102182.31;4959740;28;45256;-58
2021/12/12 10:50:19;;;;;;;;;6.25;6.25;;;;;11.71;77.02;102194.91;4941748;28;61088;-58
2021/12/12 10:52:52;;;;;;;;;6.00;6.00;;;;;11.69;76.75;102185.13;4959797;28;45253;-58
2021/12/12 10:55:30;;;;;;;;;8.00;7.00;;;;;11.72;76.43;102172.50;4959988;28;45269;-58
2021/12/12 10:58:02;;;;;;;;;4.50;4.00;;;;;11.81;76.59;102183.94;4959546;28;46123;-58
2021/12/12 11:00:31;;;;;;;;;8.75;6.75;;;;;11.81;76.34;102194.69;4959431;28;46637;-58
2021/12/12 11:02:59;;;;;;;;;9.75;5.75;;;;;11.83;77.02;102187.44;4959424;28;45284;-58
2021/12/12 11:05:42;;;;;;;;;9.50;7.25;;;;;11.83;76.63;102196.38;4959534;28;45601;-58
2021/12/12 11:08:20;;;;;;;;;5.50;4.00;;;;;11.82;76.04;102191.06;4942440;28;45569;-58
2021/12/12 11:10:47;;;;;;;;;8.25;6.00;;;;;11.80;76.33;102190.22;4959424;28;45459;-58
2021/12/12 11:13:38;;;;;;;;;7.25;5.00;;;;;11.77;76.59;102193.88;4959704;28;45333;-57
2021/12/12 11:16:22;;;;;;;;;6.00;6.00;;;;;11.75;77.08;102199.28;4960758;28;45386;-59
2021/12/12 11:18:55;;;;;;;;;8.50;6.00;;;;;11.74;76.69;102184.09;4962768;28;45406;-59
2021/12/12 11:21:30;;;;;;;;;7.00;6.50;;;;;11.87;76.80;102197.19;4962380;28;47078;-59
2021/12/12 11:24:03;;;;;;;;;5.75;4.75;;;;;11.87;77.06;102184.63;4962720;28;45267;-58
2021/12/12 11:26:40;;;;;;;;;6.75;6.75;;;;;11.97;76.80;102193.31;4962535;28;45229;-60
2021/12/12 11:29:10;;;;;;;;;9.50;7.00;;;;;11.95;76.12;102192.47;4962458;28;46389;-58
2021/12/12 11:31:44;;;;;;;;;10.25;6.25;;;;;11.94;76.62;102196.09;4961902;28;46425;-57
2021/12/12 11:34:11;;;;;;;;;7.00;5.50;;;;;12.03;76.36;102201.19;4962217;28;45643;-59
2021/12/12 11:36:49;;;;;;;;;7.75;7.00;;;;;12.09;76.46;102192.94;4962147;28;45247;-58
2021/12/12 11:39:31;;;;;;;;;9.75;7.75;;;;;12.20;76.21;102201.59;4962550;28;45281;-49
2021/12/12 11:42:03;;;;;;;;;7.00;7.00;;;;;12.23;75.95;102189.88;4962375;28;45636;-50
2021/12/12 11:44:41;;;;;;;;;8.25;7.75;;;;;12.27;76.04;102189.72;4962487;28;45347;-48
2021/12/12 11:47:23;;;;;;;;;8.75;4.50;;;;;12.28;76.08;102188.81;4962314;28;45244;-47
2021/12/12 11:49:57;;;;;;;;;4.00;4.00;;;;;12.40;76.11;102183.06;4962155;28;45589;-52
2021/12/12 11:52:35;;;;;;;;;10.25;7.75;;;;;12.55;75.46;102191.59;4961999;28;45346;-49
2021/12/12 11:55:13;;;;;;;;;5.75;4.00;;;;;12.65;75.13;102191.25;4962299;28;45309;-50
2021/12/12 11:57:52;;;;;;;;;6.00;4.50;;;;;12.67;75.21;102181.34;4962377;28;45317;-48
2021/12/12 12:00:23;;;;;;;;;5.50;5.50;;;;;12.76;74.83;102185.53;4962088;28;45483;-47
2021/12/12 12:03:10;;;;;;;;;7.25;7.25;;;;;12.86;74.47;102178.91;4954531;28;47243;-47
2021/12/12 12:05:51;;;;;;;;;6.00;5.75;;;;;12.91;73.80;102181.47;4955848;28;45381;-46
2021/12/12 12:08:22;;;;;;;;;6.25;5.50;;;;;12.93;73.97;102176.91;4962159;28;45401;-61
2021/12/12 12:11:05;;;;;;;;;4.00;4.00;;;;;12.89;74.02;102178.81;4955148;28;45331;-60
2021/12/12 12:13:54;;;;;;;;;4.50;3.50;;;;;12.91;73.96;102184.16;4960557;28;46280;-60
2021/12/12 12:16:44;;;;;;;;;6.25;5.25;;;;;12.86;74.27;102179.78;4961099;28;45404;-60
2021/12/12 12:19:24;;;;;;;;;4.25;4.25;;;;;12.85;74.14;102188.78;4956052;28;45356;-60
2021/12/12 12:22:10;;;;;;;;;7.00;7.00;;;;;12.73;74.92;102180.25;4958952;28;45357;-60
2021/12/12 12:24:44;;;;;;;;;5.25;5.00;;;;;12.71;75.10;102180.28;4954793;28;46216;-61
2021/12/12 12:27:19;;;;;;;;;8.75;7.25;;;;;12.72;74.97;102179.38;4957344;28;45354;-60
2021/12/12 12:30:22;;;;;;;;;5.00;5.00;;;;;12.69;75.02;102181.25;4956070;28;45394;-61
2021/12/12 12:33:02;;;;;;;;;7.25;5.00;;;;;12.71;75.31;102188.38;4954022;28;45743;-61
2021/12/12 12:35:58;;;;;;;;;9.50;7.00;;;;;12.76;75.22;102185.53;4959518;28;47141;-54
2021/12/12 12:38:49;;;;;;;;;12.00;11.00;;;;;12.71;75.34;102182.09;4959747;28;45506;-52
2021/12/12 12:41:33;;;;;;;;;5.75;5.75;;;;;12.63;75.23;102190.41;4956649;28;45338;-53
2021/12/12 12:44:20;;;;;;;;;6.00;6.00;;;;;12.60;75.78;102179.75;4954784;28;45327;-56
2021/12/12 12:47:42;;;;;;;;;6.00;6.00;;;;;12.71;75.25;102180.28;4955550;28;46205;-54
2021/12/12 12:50:35;;;;;;;;;7.33;5.33;;;;;12.77;74.76;102185.47;4960696;28;45395;-54
2021/12/12 12:53:38;;;;;;;;;4.00;4.00;;;;;12.84;75.00;102189.72;4961106;28;45440;-53
2021/12/12 12:56:09;;;;;;;;;5.50;5.50;;;;;12.87;74.55;102175.28;4960933;28;45592;-54
2021/12/12 12:58:58;;;;;;;;;5.00;3.75;;;;;12.83;74.97;102177.22;4955778;28;46425;-55
2021/12/12 13:01:32;;;;;;;;;6.00;6.00;;;;;12.88;75.17;102172.56;4960390;28;45181;-53
2021/12/12 13:04:03;;;;;;;;;6.75;5.75;;;;;12.99;74.78;102179.41;4970300;28;45462;-55
2021/12/12 13:06:48;;;;;;;;;3.00;3.00;;;;;13.12;74.21;102188.81;4962514;28;45260;-53
2021/12/12 13:09:21;;;;;;;;;6.25;4.00;;;;;13.05;74.02;102190.84;4960091;28;45394;-53
2021/12/12 13:12:10;;;;;;;;;6.50;4.00;;;;;13.01;74.17;102191.88;4956421;28;45315;-54
2021/12/12 13:14:51;;;;;;;;;21.75;11.25;;;;;12.90;74.51;102188.66;4911160;28;45396;-53
2021/12/12 13:17:30;;;;;;;;;7.50;6.00;;;;;12.76;75.16;102181.00;4955069;28;45284;-52
2021/12/12 13:19:55;;;;;;;;;17.75;15.75;;;;;12.81;75.07;102183.56;4960568;28;46357;-55
2021/12/12 13:22:40;;;;;;;;;14.50;10.25;;;;;12.80;74.99;102185.38;4960031;28;45350;-53
2021/12/12 13:25:48;;;;;;;;;11.75;10.25;;;;;12.76;75.29;102177.47;4960505;28;45334;-53
2021/12/12 13:28:27;;;;;;;;;7.00;6.00;;;;;12.76;76.05;102181.00;4896671;29;45378;-53
2021/12/12 13:31:27;;;;;;;;;7.50;6.00;;;;;12.82;75.54;102177.25;4899880;29;46936;-52
2021/12/12 13:34:11;;;;;;;;;5.00;5.00;;;;;12.88;75.29;102182.44;4947559;28;45488;-54
2021/12/12 13:36:43;;;;;;;;;7.50;6.75;;;;;12.90;74.83;102159.06;4959889;28;45263;-55
2021/12/12 13:39:34;;;;;;;;;7.00;5.25;;;;;12.89;75.24;102171.63;4959305;28;45382;-54
2021/12/12 13:42:19;;;;;;;;;6.00;6.00;;;;;12.81;75.35;102171.00;4955451;28;45364;-52
2021/12/12 13:45:23;;;;;;;;;5.50;5.50;;;;;12.79;75.79;102170.16;4959904;28;45353;-52
2021/12/12 13:48:03;;;;;;;;;4.25;4.25;;;;;12.76;75.63;102183.69;4960012;28;45258;-55
2021/12/12 13:51:16;;;;;;;;;6.25;4.75;;;;;12.81;75.74;102181.75;4959727;28;45725;-54
2021/12/12 13:53:59;;;;;;;;;5.00;4.25;;;;;12.80;75.74;102171.03;4899911;28;46492;-55
2021/12/12 13:56:34;;;;;;;;;7.50;6.00;;;;;12.82;75.71;102172.75;4957531;28;45502;-53
2021/12/12 13:59:13;;;;;;;;;5.75;3.00;;;;;12.71;75.67;102176.72;4959427;28;45293;-53
2021/12/12 14:01:54;;;;;;;;;5.00;3.75;;;;;12.71;75.76;102179.41;4952768;28;45517;-54
2021/12/12 14:04:40;;;;;;;;;5.50;4.25;;;;;12.64;76.07;102176.03;4971020;28;46182;-53
2021/12/12 14:07:06;;;;;;;;;6.75;4.75;;;;;12.71;75.80;102171.34;4970175;28;45480;-55
2021/12/12 14:09:34;;;;;;;;;5.00;5.00;;;;;12.76;75.73;102177.47;4963954;28;45165;-50
2021/12/12 14:12:01;;;;;;;;;6.75;5.25;;;;;12.77;75.90;102174.69;4956794;28;45484;-55
2021/12/12 14:14:37;;;;;;;;;4.25;4.25;;;;;12.79;75.42;102170.16;4959934;28;45290;-55
2021/12/12 14:17:09;;;;;;;;;3.50;3.25;;;;;12.73;75.82;102170.38;4960015;28;45402;-53
2021/12/12 14:19:50;;;;;;;;;4.00;4.00;;;;;12.69;75.61;102168.69;4959948;28;45404;-54
2021/12/12 14:22:18;;;;;;;;;4.00;4.00;;;;;12.67;75.78;102170.56;4959362;28;45418;-53
2021/12/12 14:24:43;;;;;;;;;6.75;4.25;;;;;12.67;75.58;102165.19;4959859;28;45462;-53
2021/12/12 14:27:13;;;;;;;;;3.00;3.00;;;;;12.58;76.20;102170.88;4959906;28;45327;-53
2021/12/12 14:29:42;;;;;;;;;3.50;3.50;;;;;12.56;76.08;102166.44;4959853;28;45162;-52
2021/12/12 14:32:14;;;;;;;;;6.00;4.50;;;;;12.60;76.11;102170.78;4959337;28;45506;-53
2021/12/12 14:35:16;;;;;;;;;5.25;5.25;;;;;12.63;76.00;102174.28;4959664;28;46094;-55
2021/12/12 14:37:43;;;;;;;;;9.75;3.75;;;;;12.52;76.42;102182.66;4959786;28;45345;-53
2021/12/12 14:40:18;;;;;;;;;5.25;5.00;;;;;12.52;76.50;102192.53;4959493;28;45438;-55
2021/12/12 14:43:10;;;;;;;;;3.75;3.75;;;;;12.52;76.82;102189.84;4959633;28;45980;-55
2021/12/12 14:45:46;;;;;;;;;4.00;4.00;;;;;12.46;77.01;102188.25;4940062;28;45413;-53
2021/12/12 14:48:16;;;;;;;;;7.00;7.00;;;;;12.39;77.38;102202.81;4961241;28;45200;-59
2021/12/12 14:50:52;;;;;;;;;4.75;4.00;;;;;12.39;77.81;102191.19;4950530;28;45329;-53
2021/12/12 14:53:21;;;;;;;;;5.75;4.50;;;;;12.34;77.39;102177.84;4962777;28;45381;-53
2021/12/12 14:56:01;;;;;;;;;7.25;5.50;;;;;12.38;78.04;102197.47;4962897;28;45323;-51
2021/12/12 14:58:31;;;;;;;;;7.00;6.00;;;;;12.35;77.57;102184.13;4963229;28;45414;-52
2021/12/12 15:01:25;;;;;;;;;6.25;5.25;;;;;12.43;77.97;102195.53;4962837;28;45274;-48
2021/12/12 15:03:55;;;;;;;;;7.75;7.75;;;;;12.47;77.86;102197.19;4937427;28;46361;-47
2021/12/12 15:06:46;;;;;;;;;6.50;6.50;;;;;12.43;78.03;102191.03;4962026;28;46387;-46
2021/12/12 15:09:17;;;;;;;;;10.00;7.00;;;;;12.43;78.20;102196.41;4962458;28;45260;-56
2021/12/12 15:11:53;;;;;;;;;6.00;6.00;;;;;12.44;77.67;102189.22;4962444;28;45434;-55
2021/12/12 15:14:24;;;;;;;;;9.00;7.00;;;;;12.43;77.92;102193.72;4962453;28;46129;-55
2021/12/12 15:16:51;;;;;;;;;7.75;7.75;;;;;12.44;77.82;102197.28;4962279;28;46313;-54
2021/12/12 15:19:22;;;;;;;;;13.25;10.25;;;;;12.38;78.24;102192.97;4962474;28;45450;-53
2021/12/12 15:21:50;;;;;;;;;9.00;8.00;;;;;12.39;77.82;102197.44;4962199;28;45268;-56
2021/12/12 15:24:27;;;;;;;;;12.75;7.50;;;;;12.42;78.14;102197.31;4962538;28;45446;-57
2021/12/12 15:27:08;;;;;;;;;11.25;10.00;;;;;12.45;78.11;102199.94;4962814;28;45522;-56
2021/12/12 15:29:35;;;;;;;;;10.75;10.75;;;;;12.51;77.81;102199.75;4962437;28;45455;-53
2021/12/12 15:32:08;;;;;;;;;9.75;8.50;;;;;12.47;78.08;102200.78;4962302;28;45185;-53
2021/12/12 15:34:37;;;;;;;;;13.00;9.25;;;;;12.46;77.90;102200.81;4962552;28;45594;-52
2021/12/12 15:37:08;;;;;;;;;15.75;11.75;;;;;12.41;78.43;102214.41;4962086;28;47239;-53
2021/12/12 15:39:47;;;;;;;;;14.25;11.25;;;;;12.42;78.30;102213.47;4962508;28;45304;-52
2021/12/12 15:42:16;;;;;;;;;14.00;12.75;;;;;12.44;78.38;102208.94;4962456;28;45396;-52
2021/12/12 15:44:50;;;;;;;;;19.00;11.50;;;;;12.41;78.72;102217.13;4962284;28;45429;-52
2021/12/12 15:47:19;;;;;;;;;15.25;12.75;;;;;12.35;78.72;102219.97;4962274;28;46129;-55
2021/12/12 15:49:52;;;;;;;;;14.25;13.00;;;;;12.31;79.00;102223.69;4962223;28;45290;-57
2021/12/12 15:52:38;;;;;;;;;16.25;11.50;;;;;12.32;79.02;102219.19;4962078;28;45165;-55
2021/12/12 15:55:21;;;;;;;;;15.00;15.00;;;;;12.32;78.94;102216.50;4961887;28;45284;-54
2021/12/12 15:57:50;;;;;;;;;15.75;13.00;;;;;12.24;79.67;102214.03;4962009;28;48603;-54
2021/12/12 16:00:33;;;;;;;;;14.25;12.50;;;;;12.26;79.14;102213.97;4962029;28;45332;-50
2021/12/12 16:03:07;;;;;;;;;15.00;13.50;;;;;12.27;78.91;102221.13;4960878;28;45180;-54
2021/12/12 16:05:42;;;;;;;;;13.00;11.75;;;;;12.31;79.07;102215.63;4961844;28;45364;-56
2021/12/12 16:08:14;;;;;;;;;14.75;14.75;;;;;12.35;78.71;102214.59;4962034;28;46228;-57
2021/12/12 16:10:43;;;;;;;;;19.50;15.00;;;;;12.38;78.30;102217.19;4961999;28;45307;-52
2021/12/12 16:13:18;;;;;;;;;13.00;13.00;;;;;12.36;78.65;102224.41;4962093;28;45241;-55
2021/12/12 16:15:47;;;;;;;;;14.25;11.50;;;;;12.36;78.53;102220.84;4961848;28;45283;-54
2021/12/12 16:18:15;;;;;;;;;18.00;15.75;;;;;12.30;78.91;102231.78;4949086;28;46206;-54
2021/12/12 16:20:47;;;;;;;;;13.00;12.25;;;;;12.27;78.84;102232.75;4961455;28;45329;-54
2021/12/12 16:23:20;;;;;;;;;15.75;15.00;;;;;12.29;79.18;102219.25;4962202;28;45340;-61
2021/12/12 16:25:52;;;;;;;;;20.25;18.25;;;;;12.32;79.00;102224.56;4961692;28;45245;-52
2021/12/12 16:28:21;;;;;;;;;17.50;14.00;;;;;12.35;78.72;102225.34;4961714;28;47105;-53
2021/12/12 16:31:03;;;;;;;;;14.50;12.00;;;;;12.37;78.71;102219.91;4961179;28;45370;-53
2021/12/12 16:33:46;;;;;;;;;14.25;12.75;;;;;12.44;78.25;102224.19;4961490;28;45256;-56
2021/12/12 16:36:19;;;;;;;;;12.75;12.75;;;;;12.47;78.35;102222.28;4961359;28;45565;-55
2021/12/12 16:38:45;;;;;;;;;16.75;15.00;;;;;12.40;78.21;102211.78;4961205;28;47007;-55
2021/12/12 16:41:12;;;;;;;;;12.00;9.50;;;;;12.47;78.30;102224.97;4961013;28;45371;-51
2021/12/12 16:43:49;;;;;;;;;15.75;14.00;;;;;12.48;77.94;102220.50;4961714;28;45382;-52
2021/12/12 16:46:17;;;;;;;;;19.00;18.25;;;;;12.50;78.21;102226.72;4961232;28;45383;-54
2021/12/12 16:48:45;;;;;;;;;17.50;15.25;;;;;12.50;78.02;102226.72;4961200;28;46108;-57
2021/12/12 16:51:33;;;;;;;;;19.25;17.50;;;;;12.51;78.05;102231.13;4961051;28;45264;-55
2021/12/12 16:54:02;;;;;;;;;15.25;13.50;;;;;12.50;78.19;102224.88;4961394;28;45415;-54
2021/12/12 16:56:28;;;;;;;;;24.25;20.50;;;;;12.51;78.20;102231.13;4961103;28;46031;-53